x

San Clemente Basin - 27nm Se Of San Clemente Is, Ca (46086) Wave Buoy

8:50am - Thu 18th Sep 2014 All times are PDT. -7 hours from GMT.

  • Sig Wave height 5.9ft
  • Swell Direction
  • Peak Period 16s
  • Average Period 6s
  • Wind
    13mph, 18mph gusts
  • Sea Temp 74°f
  • Air Temp 70°f
  • Sea Pressure 1012.1mb
  • San Clemente Basin - 27nm Se Of San Clemente Is, Ca
  • San Clemente Basin - 27nm Se Of San Clemente Is, Ca

More Historic Weather Station data

Upgrade to MSW Pro to gain access to the past 30 days of data for over 8000 Wavebouys and Weather Stations around the globe.

Join Pro

Comparision Forecast

View Surf forecast
   
Thu 09/18 8:50am 6ft 16s 6s 13 18 mph 1012.1mb 74f 70f
7:50am 6ft 16s 6s 13 18 mph 1011.4mb 74f 70f
6:50am 6ft 16s 6s 18 22 mph 1010.6mb 74f 70f
5:50am 5.5ft 16s 6s 18 20 mph 1010.1mb 74f 70f
4:50am 6ft 16s 6s 18 22 mph 1009.6mb 74f 70f
3:50am 5.5ft 16s 6s 20 22 mph 1009.3mb 74f 70f
2:50am 6ft 17s 6s 18 22 mph 1009.4mb 74f 70f
1:50am 6ft 17s 6s 18 22 mph 1009.5mb 74f 70f
12:50am 6ft 17s 6s 20 22 mph 1009.4mb 74f 70f
Wed 09/17 11:50pm 6.5ft 17s 6s 18 22 mph 1009.3mb 74f 71f
10:50pm 6ft 17s 6s 18 22 mph 1009.2mb 74f 71f
9:50pm 6ft 16s 6s 18 22 mph 1009mb 74f 71f
8:50pm 5.5ft 17s 6s 18 22 mph 1008.5mb 74f 71f
7:50pm 6ft 17s 6s 18 22 mph 1007.9mb 74f 72f
6:50pm 6ft 17s 6s 18 22 mph 1007.2mb 74f 72f
5:50pm 6.5ft 17s 6s 22 27 mph 1006.4mb 74f 72f
4:50pm 6ft 17s 6s 25 29 mph 1006.1mb 74f 72f
3:50pm 6.5ft 17s 6s 22 27 mph 1006.5mb 74f 72f
2:50pm 6ft 17s 6s 22 25 mph 1007mb 74f 72f
1:50pm 5ft 17s 6s 22 27 mph 1007.2mb 74f 72f
12:50pm 5.5ft 17s 7s 20 22 mph 1007.7mb 74f 71f
11:50am 5.5ft 17s 7s 18 20 mph 1008mb 74f 72f
10:50am 5ft 17s 7s 16 18 mph 1008mb 74f 72f
9:50am 5.5ft 17s 7s 13 16 mph 1007.8mb 74f 72f
8:50am 5.5ft 17s 7s 13 16 mph 1007.3mb 74f 72f
7:50am 5ft 17s 7s 13 16 mph 1007mb 74f 73f
6:50am 5.5ft 17s 7s 13 16 mph 1006.5mb 74f 72f
5:50am 5ft 19s 7s 13
mph
1006.1mb 75f 72f
4:50am 5ft 17s 7s 13 16 mph 1005.7mb 75f 72f
3:50am 5ft 19s 6s 16 18 mph 1005.6mb 75f 73f
2:50am 4.5ft 17s 6s 16 20 mph 1006.1mb 75f 73f
1:50am 5.5ft 17s 8s 13 16 mph 1006.2mb 75f 73f
12:50am 5ft 17s 7s 13 16 mph 1006.4mb 75f 73f
Tue 09/16 11:50pm 5.5ft 19s 8s 16 18 mph 1006.7mb 75f 73f
10:50pm 5ft 19s 7s 11
mph
1006.9mb 75f 74f
9:50pm 4.5ft 19s 6s 11 13 mph 1006.8mb 75f 73f
8:50pm 5ft 19s 6s 18 20 mph 1006.6mb 75f 74f
7:50pm 5ft 19s 7s 13 16 mph 1005.6mb 75f 74f
6:50pm 5.5ft 19s 7s 9 11 mph 1005.7mb 75f 75f
5:50pm 5ft 19s 7s 11 13 mph 1005.9mb 75f 75f
4:50pm 4.5ft 19s 6s 16 18 mph 1005.2mb 75f 74f
3:50pm 5ft 19s 7s 16 20 mph 1005mb 75f 74f
2:50pm 5ft 19s 6s 16 18 mph 1005.7mb 75f 74f
1:50pm 5.5ft 19s 7s 16 18 mph 1006.4mb 75f 73f
12:50pm 5ft 19s 7s 16 18 mph 1006.9mb 75f 73f
11:50am 5ft 19s 7s 13 16 mph 1007.6mb 74f 73f
10:50am 4.5ft 19s 6s 11
mph
1007.9mb 73f 74f
9:50am 5ft 19s 6s 7
mph
1008.6mb 73f 74f
8:50am 4.5ft 19s 6s 11 13 mph 1008mb 73f 73f
7:50am 4.5ft 19s 6s 13 16 mph 1007.7mb 73f 73f
6:50am 5ft 19s 7s 9 11 mph 1007.7mb 73f 73f
5:50am 4.5ft 19s 6s 9 11 mph 1007.3mb 73f 73f
4:50am 4.5ft 21s 7s 9 11 mph 1007.1mb 73f 73f
3:50am 4.5ft 21s 7s 9 11 mph 1007.3mb 73f 73f
2:50am 4.5ft 21s 7s 11
mph
1007.8mb 73f 74f
1:50am 4.5ft 21s 7s 11 13 mph 1007.9mb 73f 74f
12:50am 4.5ft 21s 6s 11 13 mph 1008.4mb 74f 73f
Mon 09/15 11:50pm 4.5ft 21s 7s 4 7 mph 1009mb 74f 74f
10:50pm 4ft 19s 6s 4 7 mph 1009.5mb 74f 73f
9:50pm 4.5ft 21s 6s 4 7 mph 1009.1mb 74f 74f
8:50pm 4ft 21s 5s 11 13 mph 1008.4mb 74f 73f
7:50pm 4.5ft 21s 6s 9
mph
1008.2mb 74f 73f
6:50pm 4.5ft 21s 6s 9 11 mph 1007.6mb 74f 74f
5:50pm 4ft 21s 5s 7 9 mph 1007.3mb 74f 75f
4:50pm 4ft 21s 5s 16 18 mph 1007mb 74f 74f
3:50pm 4ft 21s 5s 16 18 mph 1006.8mb 75f 74f
2:50pm 3.5ft 21s 6s 18 20 mph 1007.2mb 75f 73f
1:50pm 3ft 21s 5s 13 16 mph 1008mb 75f 73f
12:50pm 3.5ft 21s 6s 13 16 mph 1008.5mb 75f 74f
11:50am 3.5ft 21s 6s 13 16 mph 1009.1mb 74f 72f
10:50am 3.5ft 21s 6s 13
mph
1009.1mb 74f 73f
9:50am 3.5ft 21s 6s 11 13 mph 1009.2mb 74f 73f
8:50am 3.5ft 21s 6s 7 9 mph 1009.1mb 74f 73f
7:50am 3.5ft 21s 6s 9 11 mph 1008.8mb 73f 72f
6:50am 3.5ft 24s 6s 11 13 mph 1008.2mb 74f 72f
5:50am 3.5ft 21s 6s 11
mph
1007.9mb 74f 72f
4:50am 4ft 21s 6s 9 11 mph 1007.6mb 74f 72f
3:50am 3.5ft 10s 6s 9 11 mph 1007.5mb 74f 72f
2:50am 4ft 7s 6s 9 11 mph 1007.7mb 74f 72f
1:50am 3.5ft 7s 6s 11 13 mph 1007.7mb 74f 72f
12:50am 3.5ft 14s 6s 9 11 mph 1007.9mb 74f 72f
Sun 09/14 11:50pm 3.5ft 10s 6s 9 11 mph 1008mb 74f 72f
10:50pm 3.5ft 11s 6s 7 9 mph 1008.1mb 74f 72f
9:50pm 4ft 10s 6s 9
mph
1007.8mb 74f 71f
8:50pm 4ft 6s 5s 9 11 mph 1007.4mb 73f 72f
7:50pm 4ft 11s 5s 11
mph
1006.6mb 73f 72f
6:50pm 4.5ft 12s 5s 11 13 mph 1006.2mb 73f 72f
5:50pm 4.5ft 14s 5s 13 16 mph 1005.9mb 73f 72f